Latest Coastal Weather Observations for Esperance

IDW60701

Issued at 12:22 pm WST Friday 1 July 2016 (issued every 10 minutes, with the page automatically refreshed every 10 minutes)

About coastal observations | Map of coastal stations | Coastal observations for WA | Marine services | Other Formats
Station Details ID: 009789 Name: ESPERANCE Lat: -33.83 Lon: 121.89 Height: 25.0 m
Data from the previous 72 hours. | See also: Recent months at Esperance
Date/Time
WST
Temp
°C
Wind Pressure Rain since
9am
mm
Weather Cloud Vis
km
Sea
Height
m
Swell
Dir  Spd
kts
Gust
kts
hPa Trend Height
m
Period
s
Dir
01/12:00pm 17.1 NW 9 13 1027.9 F 0.2 - Mostly clear 10 - - - -
01/11:30am 16.7 NW 9 12 1028.5 - 0.2 - Mostly clear 10 - - - -
01/11:00am 16.1 NW 7 9 1028.9 - 0.2 - - 10 - - - -
01/10:30am 15.5 NW 7 9 1029.1 - 0.2 - - 10 - - - -
01/10:00am 14.4 NW 7 8 1029.0 - 0.0 - - 10 - - - -
01/09:30am 13.1 NW 7 8 1029.2 - 0.0 - Mostly clear 10 - - - -
01/09:00am 11.4 NW 7 9 1029.1 R 0.0 - Mostly clear 10 - - - -
01/08:30am 10.3 WNW 5 7 1029.1 - 0.0 - Mostly clear 10 - - - -
01/08:00am 8.6 WNW 3 4 1028.6 - 0.0 - Mostly clear 10 - - - -
01/07:30am 7.7 WNW 4 5 1028.4 - 0.0 - - 10 - - - -
01/07:00am 7.2 WNW 5 5 1028.1 - 0.0 - - 10 - - - -
01/06:30am 7.1 NW 6 7 1027.8 - 0.0 - - 10 - - - -
01/06:00am 7.5 NW 3 5 1027.6 R 0.0 - - 10 - - - -
01/05:30am 8.1 WNW 7 9 1027.4 - 0.0 - - 10 - - - -
01/05:00am 8.0 WNW 7 9 1027.1 - 0.0 - - 10 - - - -
01/04:30am 8.1 WNW 9 11 1027.0 - 0.0 - - 10 - - - -
01/04:00am 8.7 NW 7 8 1026.9 - 0.0 - - 10 - - - -
01/03:30am 8.6 NW 7 9 1026.8 - 0.0 - - 10 - - - -
01/03:00am 7.6 NW 6 8 1026.9 R 0.0 - - 10 - - - -
01/02:30am 7.6 NW 6 7 1027.1 - 0.0 - - 10 - - - -
01/02:00am 7.2 WNW 5 7 1027.1 - 0.0 - - 10 - - - -
01/01:30am 7.8 WNW 5 6 1027.1 - 0.0 - - 10 - - - -
01/01:00am 8.1 W 4 5 1027.0 - 0.0 - - 10 - - - -
01/12:30am 7.6 NW 4 4 1026.9 - 0.0 - - 10 - - - -
01/12:00am 7.7 NW 3 5 1026.8 R 0.0 - - 9 - - - -
 
Date/Time
WST
Temp
°C
Wind Pressure Rain since
9am
mm
Weather Cloud Vis
km
Sea
Height
m
Swell
Dir  Spd
kts
Gust
kts
hPa Trend Height
m
Period
s
Dir
30/11:30pm 8.0 NW 4 5 1027.1 - 0.0 - - 10 - - - -
30/11:00pm 8.4 WNW 4 5 1027.2 - 0.0 - - 10 - - - -
30/10:57pm 8.4 WNW 4 5 1027.1 - 0.0 - - 10 - - - -
30/10:38pm 8.4 WNW 4 4 1027.2 - 0.0 - - 6 - - - -
30/10:30pm 9.0 W 4 4 1027.2 - 0.0 - - 10 - - - -
30/10:00pm 8.9 NW 4 5 1027.2 - 0.0 - - 9 - - - -
30/09:30pm 8.9 NNW 4 5 1027.0 - 0.0 - - 10 - - - -
30/09:00pm 9.3 NNW 5 5 1026.9 R 0.0 - - 10 - - - -
30/08:30pm 9.4 NNW 5 5 1026.8 - 0.0 - - 10 - - - -
30/08:00pm 10.2 NNW 4 5 1026.5 - 0.0 - - 10 - - - -
30/07:30pm 10.5 NW 4 5 1026.3 - 0.0 - - 10 - - - -
30/07:00pm 11.5 NW 3 4 1025.9 - 0.0 - - 10 - - - -
30/06:30pm 11.9 WNW 4 4 1025.6 - 0.0 - - 10 - - - -
30/06:00pm 13.0 W 5 6 1025.2 F 0.0 - - 10 - - - -
30/05:30pm 13.5 W 5 5 1024.8 - 0.0 - - 10 - - - -
30/05:00pm 13.9 W 5 7 1024.6 - 0.0 - - 10 - - - -
30/04:30pm 14.8 WSW 5 8 1024.4 - 0.0 - - 10 - - - -
30/04:00pm 15.5 WSW 8 13 1024.2 - 0.0 - Partly cloudy 10 - - - -
30/03:30pm 16.0 W 7 11 1024.2 - 0.0 - Cloudy 10 - - - -
30/03:00pm 15.7 WSW 8 13 1024.0 R 0.0 - Cloudy 10 - - - -
30/02:30pm 15.6 WSW 8 13 1023.8 - 0.0 - Mostly clear 10 - - - -
30/02:00pm 15.3 WSW 9 14 1023.6 - 0.0 - Mostly clear 10 - - - -
30/01:30pm 15.7 WSW 8 11 1023.7 - 0.0 - Mostly clear 10 - - - -
30/01:00pm 15.2 WSW 8 12 1023.9 - 0.0 - Partly cloudy 10 - - - -
30/12:30pm 15.2 WSW 10 15 1024.0 - 0.0 - Mostly clear 10 - - - -
30/12:00pm 16.1 W 9 13 1024.2 R 0.0 - Mostly clear 10 - - - -
30/11:30am 15.6 WNW 8 12 1024.6 - 0.0 - Mostly clear 10 - - - -
30/11:00am 15.3 NW 9 13 1025.1 - 0.0 - Mostly clear 10 - - - -
30/10:30am 14.1 NW 8 11 1025.3 - 0.0 - Mostly clear 10 - - - -
30/10:00am 13.3 NW 9 12 1025.4 - 0.0 - Mostly clear 10 - - - -
30/09:30am 11.7 WNW 7 10 1025.6 - 0.0 Drizzle Mostly clear 10 - - - -
30/09:00am 11.3 WNW 8 12 1025.2 R 1.6 - Cloudy 10 - - - -
30/08:30am 10.3 WNW 11 14 1024.7 - 1.6 - Mostly clear 10 - - - -
30/08:00am 9.4 NW 9 13 1024.5 - 1.6 - Mostly clear 10 - - - -
30/07:30am 8.7 WNW 8 12 1024.2 - 1.6 - Mostly clear 10 - - - -
30/07:00am 8.9 NW 9 14 1023.8 - 1.6 - Mostly clear 10 - - - -
30/06:30am 9.5 WNW 10 14 1023.5 - 1.6 - Cloudy 10 - - - -
30/06:00am 9.4 NW 9 11 1023.2 R 1.6 - Mostly cloudy 10 - - - -
30/05:30am 9.4 WNW 10 13 1023.1 - 1.6 - Partly cloudy 10 - - - -
30/05:00am 9.1 NW 10 13 1022.9 - 1.6 - Partly cloudy 10 - - - -
30/04:30am 9.5 NW 9 12 1022.6 - 1.6 - Partly cloudy 10 - - - -
30/04:00am 10.0 NW 9 13 1022.4 - 1.6 - Partly cloudy 10 - - - -
30/03:30am 10.0 WNW 10 12 1022.4 - 1.6 - Partly cloudy 10 - - - -
30/03:00am 10.2 NW 9 13 1022.3 R 1.6 Recent precip. Mostly cloudy 10 - - - -
30/02:36am 10.1 NW 9 12 1022.4 - 1.6 - Partly cloudy 10 - - - -
30/02:30am 10.1 NW 8 11 1022.5 - 1.6 - Partly cloudy 10 - - - -
30/02:09am 10.3 W 7 11 1022.7 - 1.2 - Partly cloudy 7 - - - -
30/02:00am 10.5 W 8 12 1022.6 - 1.2 - Partly cloudy 10 - - - -
30/01:30am 10.4 WNW 9 11 1022.0 - 1.2 - Partly cloudy 10 - - - -
30/01:20am 10.5 NW 9 11 1022.0 - 1.2 - Partly cloudy 10 - - - -
30/01:06am 10.6 WNW 7 12 1021.9 - 1.2 - Partly cloudy 7 - - - -
30/01:00am 10.8 WNW 9 12 1022.0 - 1.0 - Partly cloudy 10 - - - -
30/12:30am 11.1 WNW 9 12 1021.6 - 1.0 - Partly cloudy 10 - - - -
30/12:00am 11.3 WNW 9 12 1021.7 R 1.0 - Cloudy 10 - - - -
 
Date/Time
WST
Temp
°C
Wind Pressure Rain since
9am
mm
Weather Cloud Vis
km
Sea
Height
m
Swell
Dir  Spd
kts
Gust
kts
hPa Trend Height
m
Period
s
Dir
29/11:30pm 11.2 NW 7 10 1021.5 - 1.0 - Partly cloudy 10 - - - -
29/11:00pm 11.4 NW 9 13 1021.3 - 1.0 - Partly cloudy 10 - - - -
29/10:30pm 12.5 NW 5 8 1021.2 - 1.0 - Partly cloudy 9 - - - -
29/10:00pm 12.9 W 5 7 1021.0 - 0.8 - Partly cloudy 10 - - - -
29/09:30pm 13.4 SW 8 15 1020.9 - 0.8 - Partly cloudy 10 - - - -
29/09:00pm 13.5 W 5 9 1020.7 R 0.8 - Cloudy 10 - - - -
29/08:30pm 13.5 WSW 7 10 1020.2 - 0.8 - Partly cloudy 10 - - - -
29/08:00pm 13.3 WSW 7 11 1020.0 - 0.8 - - 10 - - - -
29/07:30pm 13.3 SW 7 11 1019.6 - 0.8 - Partly cloudy 10 - - - -
29/07:00pm 13.2 SW 8 12 1019.5 - 0.8 - Partly cloudy 10 - - - -
29/06:30pm 13.4 SW 7 12 1019.1 - 0.8 - Partly cloudy 10 - - - -
29/06:00pm 13.3 WSW 7 11 1018.6 R 0.8 Recent precip. Mostly cloudy 10 - - - -
29/05:49pm 13.0 WSW 8 12 1018.6 - 0.8 - Partly cloudy 10 - - - -
29/05:30pm 13.2 WSW 8 14 1018.4 - 0.6 - Partly cloudy 7 - - - -
29/05:00pm 13.0 WSW 9 14 1017.8 - 0.0 - Partly cloudy 10 - - - -
29/04:30pm 15.0 WSW 8 15 1017.1 - 0.0 - Partly cloudy 10 - - - -
29/04:00pm 15.4 WSW 12 20 1016.7 - 0.0 - Partly cloudy 10 - - - -
29/03:30pm 16.0 WSW 10 15 1016.0 - 0.0 - Partly cloudy 10 - - - -
29/03:00pm 16.1 W 13 20 1015.6 R 0.0 - Mostly clear 10 - - - -
29/02:30pm 16.5 WSW 13 20 1015.2 - 0.0 - Mostly clear 10 - - - -
29/02:00pm 16.5 WSW 12 18 1014.8 - 0.0 - Mostly clear 10 - - - -
29/01:30pm 16.7 WSW 12 17 1014.6 - 0.0 - Partly cloudy 10 - - - -
29/01:00pm 16.9 W 9 16 1014.5 - 0.0 - Partly cloudy 10 - - - -
29/12:30pm 17.2 W 11 19 1014.4 - 0.0 - Partly cloudy 10 - - - -
29/12:00pm 17.0 WSW 13 19 1014.5 R 0.0 - Mostly clear 10 - - - -
29/11:30am 16.8 WNW 11 17 1014.5 - 0.0 - Partly cloudy 10 - - - -
29/11:00am 16.6 WNW 12 19 1014.7 - 0.0 - Mostly clear 10 - - - -
29/10:30am 15.5 W 9 15 1014.8 - 0.0 - Partly cloudy 10 - - - -
29/10:00am 15.6 W 11 16 1014.7 - 0.0 - Partly cloudy 10 - - - -
29/09:30am 15.4 WNW 10 16 1014.5 - 0.0 - Mostly clear 10 - - - -
29/09:00am 14.7 WNW 11 19 1014.2 R 0.0 - Mostly clear 10 - - - -
29/08:30am 13.9 WNW 10 14 1013.8 - 0.0 - Mostly clear 10 - - - -
29/08:00am 13.2 WNW 9 13 1013.6 - 0.0 - Mostly clear 10 - - - -
29/07:30am 12.6 NW 9 13 1013.3 - 0.0 - Mostly clear 10 - - - -
29/07:00am 12.8 WNW 9 13 1013.0 - 0.0 - Mostly clear 10 - - - -
29/06:30am 13.2 WNW 9 12 1012.5 - 0.0 - - 10 - - - -
29/06:00am 13.3 WNW 8 11 1012.1 R 0.0 - Mostly cloudy 10 - - - -
29/05:30am 13.6 NW 9 13 1011.9 - 0.0 - - 10 - - - -
29/05:00am 13.5 NW 9 12 1011.5 - 0.0 - - 10 - - - -
29/04:30am 13.5 WNW 9 15 1011.4 - 0.0 - - 10 - - - -
29/04:00am 13.4 WNW 10 13 1011.3 - 0.0 - Partly cloudy 10 - - - -
29/03:30am 13.5 NW 13 18 1011.3 - 0.0 - - 10 - - - -
29/03:00am 13.5 NW 13 17 1011.2 R 0.0 - Partly cloudy 10 - - - -
29/02:30am 13.5 NW 13 18 1011.0 - 0.0 - Partly cloudy 10 - - - -
29/02:00am 13.7 NW 14 20 1011.0 - 0.0 - - 10 - - - -
29/01:30am 13.8 NW 12 16 1011.1 - 0.0 - - 10 - - - -
29/01:00am 13.8 NW 11 17 1011.1 - 0.0 - Partly cloudy 10 - - - -
29/12:30am 14.2 NW 11 16 1011.0 - 0.0 - - 10 - - - -
29/12:00am 14.4 NW 11 16 1011.0 F 0.0 - Partly cloudy 10 - - - -
 
Date/Time
WST
Temp
°C
Wind Pressure Rain since
9am
mm
Weather Cloud Vis
km
Sea
Height
m
Swell
Dir  Spd
kts
Gust
kts
hPa Trend Height
m
Period
s
Dir
28/11:30pm 14.7 NNW 14 20 1010.9 - 0.0 - - 10 - - - -
28/11:00pm 15.2 NW 16 23 1011.0 - 0.0 - - 10 - - - -
28/10:30pm 15.1 NNW 18 25 1010.8 - 0.0 - Partly cloudy 10 - - - -
28/10:00pm 15.0 NNW 12 18 1011.1 - 0.0 - Partly cloudy 10 - - - -
28/09:30pm 15.1 NNW 13 18 1011.5 - 0.0 - Partly cloudy 10 - - - -
28/09:00pm 15.2 NNW 11 15 1011.9 F 0.0 - Cloudy 10 - - - -
28/08:30pm 14.8 NNW 10 13 1011.9 - 0.0 - Partly cloudy 10 - - - -
28/08:00pm 14.8 N 6 9 1012.1 - 0.0 - Partly cloudy 10 - - - -
28/07:30pm 14.1 N 7 9 1012.1 - 0.0 - Partly cloudy 10 - - - -
28/07:00pm 14.3 N 8 10 1012.1 - 0.0 - Cloudy 10 - - - -
28/06:30pm 14.7 N 8 10 1012.1 - 0.0 - Cloudy 10 - - - -
28/06:00pm 14.5 N 6 7 1012.0 F 0.0 - Cloudy 10 - - - -
28/05:30pm 15.5 N 4 6 1011.9 - 0.0 - Partly cloudy 10 - - - -
28/05:00pm 16.1 NNW 4 5 1011.8 - 0.0 - Partly cloudy 10 - - - -
28/04:30pm 16.8 N 6 7 1011.8 - 0.0 - Partly cloudy 10 - - - -
28/04:00pm 17.7 NNW 7 10 1011.4 - 0.0 - - 10 - - - -
28/03:30pm 19.0 NNW 10 14 1011.5 - 0.0 - - 10 - - - -
28/03:00pm 19.3 NNW 11 15 1011.5 F 0.0 - - 10 - - - -
28/02:30pm 19.2 NNW 11 17 1011.4 - 0.0 - - 10 - - - -
28/02:00pm 19.2 NNW 11 15 1011.5 - 0.0 - - 10 - - - -
28/01:30pm 19.1 NW 11 15 1011.7 - 0.0 - - 10 - - - -
28/01:00pm 18.6 NNW 13 19 1012.0 - 0.0 - - 10 - - - -
28/12:30pm 18.1 NNW 12 17 1012.7 - 0.0 - - 10 - - - -

Other Formats:

Comma delimited format used in spreadsheet applications
http://www.bom.gov.au/fwo/IDW60701/IDW60701.94638.axf

JavaScript Object Notation format (JSON) in row-major order
http://www.bom.gov.au/fwo/IDW60701/IDW60701.94638.json